Time;durP1;ratioP1;P1;durP2;ratioP2;P2;SDS_P1;SDS_P2;PMS_P1;PMS_P2;Temp;Humidity;BMP_temperature;BMP_pressure;BME280_temperature;BME280_humidity;BME280_pressure;Samples;Min_cycle;Max_cycle;Signal;HPM_P1;HPM_P2
2021/07/03 00:00:43;;;;;;;27.98;15.05;;;;;;;;;;5091116;28;20656;-63
2021/07/03 00:03:09;;;;;;;24.27;14.73;;;;;;;;;;5091550;28;20024;-64
2021/07/03 00:05:35;;;;;;;24.60;14.80;;;;;;;;;;5093497;28;20032;-64
2021/07/03 00:08:01;;;;;;;24.35;14.45;;;;;;;;;;5090810;28;20020;-63
2021/07/03 00:10:27;;;;;;;27.02;14.70;;;;;;;;;;5093626;28;20044;-64
2021/07/03 00:12:53;;;;;;;28.83;15.18;;;;;;;;;;5093118;28;20020;-64
2021/07/03 00:15:23;;;;;;;30.90;16.42;;;;;;;;;;5091508;28;20072;-64
2021/07/03 00:17:53;;;;;;;32.45;18.27;;;;;;;;;;5091412;28;20040;-64
2021/07/03 00:20:20;;;;;;;33.33;18.15;;;;;;;;;;5091478;28;20124;-64
2021/07/03 00:22:46;;;;;;;33.78;17.60;;;;;;;;;;5095076;28;20496;-63
2021/07/03 00:25:12;;;;;;;34.17;18.08;;;;;;;;;;5092923;28;20049;-64
2021/07/03 00:27:38;;;;;;;29.85;17.70;;;;;;;;;;5091844;28;20020;-64
2021/07/03 00:30:05;;;;;;;31.83;16.65;;;;;;;;;;5092768;28;20028;-64
2021/07/03 00:32:31;;;;;;;32.47;17.05;;;;;;;;;;5092582;28;20115;-64
2021/07/03 00:34:57;;;;;;;29.70;17.65;;;;;;;;;;5092733;28;20016;-64
2021/07/03 00:37:24;;;;;;;31.95;18.00;;;;;;;;;;5090273;28;20526;-63
2021/07/03 00:39:50;;;;;;;32.67;17.80;;;;;;;;;;5092401;28;20055;-64
2021/07/03 00:42:16;;;;;;;32.67;18.85;;;;;;;;;;5092581;28;20218;-64
2021/07/03 00:44:42;;;;;;;40.47;21.30;;;;;;;;;;5092522;28;20230;-64
2021/07/03 00:47:09;;;;;;;32.60;20.45;;;;;;;;;;5091747;28;20027;-64
2021/07/03 00:49:35;;;;;;;36.80;20.50;;;;;;;;;;5092227;28;20068;-64
2021/07/03 00:52:03;;;;;;;41.63;22.45;;;;;;;;;;5090422;28;20016;-64
2021/07/03 00:54:29;;;;;;;33.60;19.95;;;;;;;;;;5091898;28;20032;-64
2021/07/03 00:57:02;;;;;;;45.05;24.52;;;;;;;;;;5091772;28;20070;-64
2021/07/03 00:59:34;;;;;;;47.03;25.27;;;;;;;;;;5092416;28;20038;-64
2021/07/03 01:02:00;;;;;;;;;;;;;;;;;;5090642;28;20020;-64
2021/07/03 01:04:26;;;;;;;54.85;29.80;;;;;;;;;;5091695;28;20386;-64
2021/07/03 01:06:52;;;;;;;48.30;27.13;;;;;;;;;;5091550;28;20031;-64
2021/07/03 01:09:18;;;;;;;58.15;28.58;;;;;;;;;;5090084;28;20048;-64
2021/07/03 01:11:44;;;;;;;42.38;24.33;;;;;;;;;;5091094;28;20479;-65
2021/07/03 01:14:10;;;;;;;45.20;24.45;;;;;;;;;;5092473;28;20066;-65
2021/07/03 01:16:36;;;;;;;50.67;28.05;;;;;;;;;;5090688;28;20024;-65
2021/07/03 01:19:02;;;;;;;54.30;28.95;;;;;;;;;;5091736;28;20032;-64
2021/07/03 01:21:29;;;;;;;47.95;26.63;;;;;;;;;;5091449;28;20115;-64
2021/07/03 01:23:55;;;;;;;50.22;27.85;;;;;;;;;;5091703;28;20024;-64
2021/07/03 01:26:21;;;;;;;51.22;28.30;;;;;;;;;;5092183;28;20059;-64
2021/07/03 01:28:47;;;;;;;51.00;27.83;;;;;;;;;;5090998;28;20493;-65
2021/07/03 01:31:14;;;;;;;57.30;30.52;;;;;;;;;;5091119;28;20039;-64
2021/07/03 01:33:40;;;;;;;60.42;32.08;;;;;;;;;;5091290;28;20022;-64
2021/07/03 01:36:06;;;;;;;58.40;31.85;;;;;;;;;;5089111;28;20024;-64
2021/07/03 01:38:32;;;;;;;65.93;34.05;;;;;;;;;;5088768;28;20047;-64
2021/07/03 01:40:58;;;;;;;59.60;32.78;;;;;;;;;;5090276;28;20035;-65
2021/07/03 01:43:25;;;;;;;58.42;33.53;;;;;;;;;;5090771;28;20066;-65
2021/07/03 01:45:52;;;;;;;62.28;32.90;;;;;;;;;;5089372;28;20032;-65
2021/07/03 01:48:28;;;;;;;61.17;33.45;;;;;;;;;;5090407;28;20024;-65
2021/07/03 01:50:54;;;;;;;64.28;34.63;;;;;;;;;;5089634;28;20120;-65
2021/07/03 01:53:21;;;;;;;61.58;31.27;;;;;;;;;;5086341;28;20024;-65
2021/07/03 01:55:47;;;;;;;63.17;34.47;;;;;;;;;;5091232;28;20035;-65
2021/07/03 01:58:17;;;;;;;63.13;35.97;;;;;;;;;;5089955;28;20012;-65
2021/07/03 02:00:44;;;;;;;60.58;34.65;;;;;;;;;;5089979;28;20111;-64
2021/07/03 02:03:10;;;;;;;62.17;36.03;;;;;;;;;;5091475;28;20168;-64
2021/07/03 02:05:36;;;;;;;59.47;34.30;;;;;;;;;;5091198;28;20070;-64
2021/07/03 02:08:02;;;;;;;53.80;30.25;;;;;;;;;;5090206;28;20016;-65
2021/07/03 02:10:28;;;;;;;61.42;33.33;;;;;;;;;;5090808;28;20023;-65
2021/07/03 02:12:54;;;;;;;66.93;36.22;;;;;;;;;;5090889;28;20024;-65
2021/07/03 02:15:20;;;;;;;62.67;32.00;;;;;;;;;;5090383;28;20020;-65
2021/07/03 02:17:47;;;;;;;60.05;32.63;;;;;;;;;;5089493;28;20046;-65
2021/07/03 02:20:13;;;;;;;62.90;33.58;;;;;;;;;;5090898;28;20035;-64
2021/07/03 02:22:39;;;;;;;59.28;32.38;;;;;;;;;;5090783;28;20024;-64
2021/07/03 02:25:06;;;;;;;57.80;32.42;;;;;;;;;;5090573;28;20031;-65
2021/07/03 02:27:32;;;;;;;63.95;32.60;;;;;;;;;;5089841;28;20041;-65
2021/07/03 02:30:00;;;;;;;56.67;34.15;;;;;;;;;;5090303;28;20166;-64
2021/07/03 02:32:26;;;;;;;63.22;33.53;;;;;;;;;;5090438;28;20046;-64
2021/07/03 02:34:52;;;;;;;70.50;39.72;;;;;;;;;;5090083;28;20027;-65
2021/07/03 02:37:18;;;;;;;75.57;40.65;;;;;;;;;;5089460;28;20539;-65
2021/07/03 02:39:44;;;;;;;68.60;37.97;;;;;;;;;;5089975;28;20408;-65
2021/07/03 02:42:11;;;;;;;64.07;37.75;;;;;;;;;;5090752;28;20039;-64
2021/07/03 02:44:37;;;;;;;79.55;43.03;;;;;;;;;;5088438;28;20123;-64
2021/07/03 02:47:03;;;;;;;77.18;43.67;;;;;;;;;;5087760;28;20549;-64
2021/07/03 02:49:29;;;;;;;80.00;45.63;;;;;;;;;;5088020;28;20063;-65
2021/07/03 02:51:56;;;;;;;80.45;43.63;;;;;;;;;;5089317;28;20024;-64
2021/07/03 02:54:22;;;;;;;67.05;41.42;;;;;;;;;;5089658;28;20495;-65
2021/07/03 02:56:48;;;;;;;84.13;47.72;;;;;;;;;;5088784;28;20051;-64
2021/07/03 02:59:14;;;;;;;71.47;41.88;;;;;;;;;;5089595;28;20024;-64
2021/07/03 03:01:40;;;;;;;86.07;49.30;;;;;;;;;;5089800;28;20032;-64
2021/07/03 03:04:06;;;;;;;80.53;47.42;;;;;;;;;;5087578;28;20514;-64
2021/07/03 03:06:32;;;;;;;79.18;47.42;;;;;;;;;;5090683;28;20125;-64
2021/07/03 03:08:58;;;;;;;91.78;56.55;;;;;;;;;;5089371;28;20513;-65
2021/07/03 03:11:24;;;;;;;84.95;51.35;;;;;;;;;;5089792;28;20495;-65
2021/07/03 03:13:50;;;;;;;87.47;52.22;;;;;;;;;;5089371;28;20518;-65
2021/07/03 03:16:16;;;;;;;90.78;54.28;;;;;;;;;;5090159;28;20051;-64
2021/07/03 03:18:42;;;;;;;91.60;54.80;;;;;;;;;;5088281;28;20032;-64
2021/07/03 03:21:08;;;;;;;109.07;58.92;;;;;;;;;;5089631;28;20035;-65
2021/07/03 03:23:34;;;;;;;89.35;52.70;;;;;;;;;;5091514;28;20498;-64
2021/07/03 03:26:00;;;;;;;101.78;61.38;;;;;;;;;;5089444;28;20016;-64
2021/07/03 03:28:26;;;;;;;103.45;62.50;;;;;;;;;;5088515;28;20028;-65
2021/07/03 03:30:52;;;;;;;90.68;58.05;;;;;;;;;;5089529;28;20016;-64
2021/07/03 03:33:19;;;;;;;90.45;52.67;;;;;;;;;;5087050;28;20028;-65
2021/07/03 03:35:45;;;;;;;94.45;56.35;;;;;;;;;;5089289;28;20016;-64
2021/07/03 03:38:11;;;;;;;96.07;59.05;;;;;;;;;;5087776;28;20028;-65
2021/07/03 03:40:37;;;;;;;90.75;55.08;;;;;;;;;;5088705;28;20024;-65
2021/07/03 03:43:03;;;;;;;94.28;57.10;;;;;;;;;;5089802;28;20032;-64
2021/07/03 03:45:29;;;;;;;91.13;54.85;;;;;;;;;;5087995;28;20047;-65
2021/07/03 03:47:55;;;;;;;92.75;54.92;;;;;;;;;;5088352;28;20411;-64
2021/07/03 03:50:21;;;;;;;88.32;54.33;;;;;;;;;;5088615;28;20055;-64
2021/07/03 03:52:47;;;;;;;88.80;55.85;;;;;;;;;;5089175;28;21708;-64
2021/07/03 03:55:13;;;;;;;82.55;51.55;;;;;;;;;;5085448;28;20032;-65
2021/07/03 03:57:39;;;;;;;84.57;54.10;;;;;;;;;;5086116;28;20071;-64
2021/07/03 04:00:07;;;;;;;82.50;51.15;;;;;;;;;;5088792;28;20032;-64
2021/07/03 04:02:33;;;;;;;72.65;48.08;;;;;;;;;;5088741;28;20055;-64
2021/07/03 04:04:59;;;;;;;76.15;50.63;;;;;;;;;;5085596;28;20028;-64
2021/07/03 04:07:25;;;;;;;72.03;46.05;;;;;;;;;;5087392;28;20102;-64
2021/07/03 04:09:52;;;;;;;82.78;51.67;;;;;;;;;;5088875;28;20506;-65
2021/07/03 04:12:18;;;;;;;74.53;49.80;;;;;;;;;;5089540;28;20024;-64
2021/07/03 04:14:44;;;;;;;76.88;50.42;;;;;;;;;;5088442;28;20028;-64
2021/07/03 04:17:10;;;;;;;74.18;49.85;;;;;;;;;;5087132;28;20756;-64
2021/07/03 04:19:36;;;;;;;71.05;47.03;;;;;;;;;;5090815;28;20502;-64
2021/07/03 04:22:02;;;;;;;63.38;44.15;;;;;;;;;;5089287;28;20016;-65
2021/07/03 04:24:28;;;;;;;61.75;41.08;;;;;;;;;;5088384;28;20506;-64
2021/07/03 04:26:54;;;;;;;64.65;45.22;;;;;;;;;;5087904;28;20039;-64
2021/07/03 04:29:21;;;;;;;69.22;44.08;;;;;;;;;;5088911;28;20023;-64
2021/07/03 04:31:47;;;;;;;63.13;42.20;;;;;;;;;;5088499;28;20080;-64
2021/07/03 04:34:13;;;;;;;63.03;41.55;;;;;;;;;;5087707;28;20020;-64
2021/07/03 04:36:39;;;;;;;65.40;43.90;;;;;;;;;;5089033;28;20031;-64
2021/07/03 04:39:05;;;;;;;59.38;39.10;;;;;;;;;;5087915;28;20020;-64
2021/07/03 04:41:31;;;;;;;65.38;43.30;;;;;;;;;;5087777;28;20029;-64
2021/07/03 04:43:58;;;;;;;65.82;42.47;;;;;;;;;;5088676;28;20077;-64
2021/07/03 04:46:24;;;;;;;58.22;40.45;;;;;;;;;;5087273;28;20077;-64
2021/07/03 04:48:50;;;;;;;59.92;40.15;;;;;;;;;;5090964;28;20043;-64
2021/07/03 04:51:16;;;;;;;59.67;40.95;;;;;;;;;;5092029;28;20527;-64
2021/07/03 04:53:42;;;;;;;62.00;41.50;;;;;;;;;;5090038;28;20020;-64
2021/07/03 04:56:08;;;;;;;60.70;37.45;;;;;;;;;;5092122;28;20564;-64
2021/07/03 04:58:34;;;;;;;55.85;38.88;;;;;;;;;;5088888;28;20020;-64
2021/07/03 05:01:00;;;;;;;60.05;40.03;;;;;;;;;;5091637;28;20081;-64
2021/07/03 05:03:26;;;;;;;63.90;41.35;;;;;;;;;;5090330;28;20066;-64
2021/07/03 05:05:52;;;;;;;54.78;37.92;;;;;;;;;;5092547;28;20016;-64
2021/07/03 05:08:18;;;;;;;59.97;37.83;;;;;;;;;;5089883;28;20020;-64
2021/07/03 05:10:44;;;;;;;56.03;38.63;;;;;;;;;;5091508;28;20032;-64
2021/07/03 05:13:10;;;;;;;53.13;36.58;;;;;;;;;;5092080;28;20032;-64
2021/07/03 05:15:36;;;;;;;51.75;35.38;;;;;;;;;;5090802;28;20031;-64
2021/07/03 05:18:03;;;;;;;53.38;35.35;;;;;;;;;;5090101;28;20046;-64
2021/07/03 05:20:30;;;;;;;51.33;35.67;;;;;;;;;;5091693;28;20120;-64
2021/07/03 05:22:56;;;;;;;62.75;36.80;;;;;;;;;;5093028;28;20020;-64
2021/07/03 05:25:22;;;;;;;50.45;34.97;;;;;;;;;;5090036;28;20024;-64
2021/07/03 05:27:48;;;;;;;51.63;35.97;;;;;;;;;;5088702;28;20036;-64
2021/07/03 05:30:14;;;;;;;54.03;34.25;;;;;;;;;;5089081;28;20057;-64
2021/07/03 05:32:40;;;;;;;52.03;32.35;;;;;;;;;;5091793;28;20120;-64
2021/07/03 05:35:07;;;;;;;46.53;30.70;;;;;;;;;;5091880;28;20024;-64
2021/07/03 05:37:33;;;;;;;48.70;32.30;;;;;;;;;;5088867;28;20020;-64
2021/07/03 05:39:59;;;;;;;52.28;32.65;;;;;;;;;;5090666;28;20024;-64
2021/07/03 05:42:25;;;;;;;49.67;32.80;;;;;;;;;;5090912;28;20490;-64
2021/07/03 05:44:51;;;;;;;53.45;34.65;;;;;;;;;;5091592;28;20020;-64
2021/07/03 05:47:19;;;;;;;46.78;31.40;;;;;;;;;;5088939;28;20023;-64
2021/07/03 05:49:45;;;;;;;47.42;32.15;;;;;;;;;;5091044;28;20096;-64
2021/07/03 05:52:12;;;;;;;48.42;35.00;;;;;;;;;;5091052;28;20024;-64
2021/07/03 05:54:38;;;;;;;51.08;33.35;;;;;;;;;;5090434;28;20021;-64
2021/07/03 05:57:04;;;;;;;44.80;32.50;;;;;;;;;;5089969;28;20044;-64
2021/07/03 05:59:30;;;;;;;52.45;33.58;;;;;;;;;;5090907;28;20490;-64
2021/07/03 06:01:56;;;;;;;46.28;32.45;;;;;;;;;;5091061;28;20102;-64
2021/07/03 06:04:22;;;;;;;46.40;32.60;;;;;;;;;;5089720;28;20053;-64
2021/07/03 06:06:48;;;;;;;55.67;34.45;;;;;;;;;;5088783;28;20027;-64
2021/07/03 06:09:14;;;;;;;46.00;32.20;;;;;;;;;;5090143;28;20028;-64
2021/07/03 06:11:40;;;;;;;48.92;31.55;;;;;;;;;;5089062;28;20064;-64
2021/07/03 06:14:07;;;;;;;44.97;29.63;;;;;;;;;;5088053;28;20111;-64
2021/07/03 06:16:33;;;;;;;45.05;31.92;;;;;;;;;;5088397;28;20035;-64
2021/07/03 06:18:59;;;;;;;44.25;31.95;;;;;;;;;;5089130;28;20024;-65
2021/07/03 06:21:25;;;;;;;41.00;28.88;;;;;;;;;;5089477;28;20017;-64
2021/07/03 06:23:51;;;;;;;47.58;30.73;;;;;;;;;;5090133;28;20027;-64
2021/07/03 06:26:17;;;;;;;45.65;29.98;;;;;;;;;;5090104;28;20056;-64
2021/07/03 06:28:43;;;;;;;40.83;27.50;;;;;;;;;;5089421;28;20051;-64
2021/07/03 06:31:09;;;;;;;44.72;31.45;;;;;;;;;;5089493;28;20036;-64
2021/07/03 06:33:35;;;;;;;42.72;30.80;;;;;;;;;;5090074;28;20029;-64
2021/07/03 06:36:01;;;;;;;46.10;32.03;;;;;;;;;;5091540;28;20020;-65
2021/07/03 06:38:27;;;;;;;38.42;28.20;;;;;;;;;;5090415;28;20110;-64
2021/07/03 06:40:53;;;;;;;41.65;30.75;;;;;;;;;;5091553;28;20032;-64
2021/07/03 06:43:19;;;;;;;44.78;31.75;;;;;;;;;;5090750;28;20020;-64
2021/07/03 06:45:45;;;;;;;46.72;31.08;;;;;;;;;;5090262;28;20140;-64
2021/07/03 06:48:11;;;;;;;43.08;29.67;;;;;;;;;;5090265;28;20020;-65
2021/07/03 06:50:37;;;;;;;42.90;31.23;;;;;;;;;;5090362;28;20596;-65
2021/07/03 06:53:03;;;;;;;46.35;32.13;;;;;;;;;;5091570;28;20054;-65
2021/07/03 06:55:30;;;;;;;51.13;35.00;;;;;;;;;;5089734;28;20032;-65
2021/07/03 06:57:56;;;;;;;51.13;33.75;;;;;;;;;;5089511;28;20589;-65
2021/07/03 07:00:22;;;;;;;52.05;36.15;;;;;;;;;;5090660;28;20028;-65
2021/07/03 07:02:48;;;;;;;52.60;38.25;;;;;;;;;;5089492;28;20079;-65
2021/07/03 07:05:14;;;;;;;47.50;33.28;;;;;;;;;;5090381;28;20016;-65
2021/07/03 07:07:40;;;;;;;53.22;38.67;;;;;;;;;;5089391;28;20020;-65
2021/07/03 07:10:07;;;;;;;49.13;34.03;;;;;;;;;;5089070;28;20054;-65
2021/07/03 07:12:33;;;;;;;52.20;35.63;;;;;;;;;;5089100;28;20081;-65
2021/07/03 07:14:59;;;;;;;50.22;34.15;;;;;;;;;;5087699;28;20020;-65
2021/07/03 07:17:25;;;;;;;51.75;36.28;;;;;;;;;;5088605;28;20035;-65
2021/07/03 07:19:51;;;;;;;49.50;32.65;;;;;;;;;;5089112;28;20024;-64
2021/07/03 07:22:17;;;;;;;46.03;32.42;;;;;;;;;;5090929;28;20020;-65
2021/07/03 07:24:43;;;;;;;45.85;32.97;;;;;;;;;;5088767;28;20102;-64
2021/07/03 07:27:10;;;;;;;43.20;30.42;;;;;;;;;;5086523;28;20074;-64
2021/07/03 07:29:36;;;;;;;41.78;29.08;;;;;;;;;;5089581;28;20445;-65
2021/07/03 07:32:02;;;;;;;40.55;29.85;;;;;;;;;;5087976;28;20407;-64
2021/07/03 07:34:28;;;;;;;37.67;27.33;;;;;;;;;;5089626;28;20423;-64
2021/07/03 07:36:54;;;;;;;39.75;27.80;;;;;;;;;;5089253;28;20078;-64
2021/07/03 07:39:20;;;;;;;39.95;26.70;;;;;;;;;;5087094;28;20047;-64
2021/07/03 07:41:47;;;;;;;37.10;26.10;;;;;;;;;;5084310;28;20112;-64
2021/07/03 07:44:13;;;;;;;37.78;24.65;;;;;;;;;;5082030;28;20035;-64
2021/07/03 07:46:39;;;;;;;39.97;27.73;;;;;;;;;;5075344;28;20606;-64
2021/07/03 07:49:05;;;;;;;39.28;28.70;;;;;;;;;;5087279;28;20044;-64
2021/07/03 07:51:32;;;;;;;38.58;26.23;;;;;;;;;;5080005;28;20028;-64
2021/07/03 07:53:58;;;;;;;42.13;27.85;;;;;;;;;;5082427;28;20039;-64
2021/07/03 07:56:24;;;;;;;40.45;27.13;;;;;;;;;;5081858;28;20193;-64
2021/07/03 07:58:50;;;;;;;39.33;27.40;;;;;;;;;;5083386;28;20032;-64
2021/07/03 08:01:16;;;;;;;39.58;27.27;;;;;;;;;;5083653;28;20058;-64
2021/07/03 08:03:42;;;;;;;41.25;28.25;;;;;;;;;;5085292;28;20023;-64
2021/07/03 08:06:09;;;;;;;48.33;28.70;;;;;;;;;;5078891;28;20040;-64
2021/07/03 08:08:35;;;;;;;38.08;26.13;;;;;;;;;;5074865;28;20021;-64
2021/07/03 08:11:01;;;;;;;42.78;29.60;;;;;;;;;;5082567;28;20495;-64
2021/07/03 08:13:27;;;;;;;42.25;26.70;;;;;;;;;;5078893;28;20044;-64
2021/07/03 08:15:53;;;;;;;36.08;25.58;;;;;;;;;;5082858;28;20039;-64
2021/07/03 08:18:20;;;;;;;38.72;26.13;;;;;;;;;;5075268;28;20021;-64
2021/07/03 08:20:47;;;;;;;32.47;23.48;;;;;;;;;;5073238;28;20089;-64
2021/07/03 08:23:14;;;;;;;35.25;23.90;;;;;;;;;;5087886;28;20020;-63
2021/07/03 08:25:40;;;;;;;33.53;24.50;;;;;;;;;;5091545;28;20138;-63
2021/07/03 08:28:06;;;;;;;35.25;23.20;;;;;;;;;;5091715;28;20467;-64
2021/07/03 08:30:34;;;;;;;30.38;22.15;;;;;;;;;;5092926;28;20024;-64
2021/07/03 08:33:00;;;;;;;31.52;20.63;;;;;;;;;;5091326;28;20118;-63
2021/07/03 08:35:26;;;;;;;27.48;19.02;;;;;;;;;;5090531;28;20506;-64
2021/07/03 08:37:52;;;;;;;25.17;18.38;;;;;;;;;;5079463;28;20043;-64
2021/07/03 08:40:18;;;;;;;29.15;19.80;;;;;;;;;;5092405;28;20039;-64
2021/07/03 08:42:45;;;;;;;28.58;18.95;;;;;;;;;;5092355;28;20480;-64
2021/07/03 08:45:11;;;;;;;22.80;17.60;;;;;;;;;;5091769;28;20013;-64
2021/07/03 08:47:42;;;;;;;21.75;16.33;;;;;;;;;;5086944;28;20468;-63
2021/07/03 08:50:09;;;;;;;26.77;15.73;;;;;;;;;;5086829;28;20066;-63
2021/07/03 08:52:35;;;;;;;26.00;16.77;;;;;;;;;;5094340;28;20066;-63
2021/07/03 08:55:01;;;;;;;22.60;15.18;;;;;;;;;;5093283;28;20016;-63
2021/07/03 08:57:27;;;;;;;23.35;15.13;;;;;;;;;;5090439;28;20538;-64
2021/07/03 08:59:57;;;;;;;22.77;13.00;;;;;;;;;;5092536;28;20035;-63
2021/07/03 09:02:33;;;;;;;18.17;12.93;;;;;;;;;;5091207;28;20020;-63
2021/07/03 09:05:00;;;;;;;17.13;12.65;;;;;;;;;;5092150;28;20095;-64
2021/07/03 09:07:32;;;;;;;15.65;11.60;;;;;;;;;;5091385;28;20020;-64
2021/07/03 09:09:58;;;;;;;16.05;11.77;;;;;;;;;;5090871;28;20032;-63
2021/07/03 09:12:31;;;;;;;16.23;10.88;;;;;;;;;;5093036;28;20032;-64
2021/07/03 09:15:08;;;;;;;14.23;10.82;;;;;;;;;;5092387;28;20030;-63
2021/07/03 09:17:40;;;;;;;17.63;10.50;;;;;;;;;;5087702;28;20040;-63
2021/07/03 09:20:07;;;;;;;16.05;9.68;;;;;;;;;;5088300;28;20056;-63
2021/07/03 09:22:34;;;;;;;15.65;10.35;;;;;;;;;;5094508;28;20059;-63
2021/07/03 09:25:00;;;;;;;15.13;11.25;;;;;;;;;;5092139;28;20018;-63
2021/07/03 09:27:26;;;;;;;19.70;12.13;;;;;;;;;;5089643;28;20103;-63
2021/07/03 09:29:52;;;;;;;18.63;12.52;;;;;;;;;;5092138;28;20472;-63
2021/07/03 09:32:18;;;;;;;16.20;11.48;;;;;;;;;;5092356;28;20024;-63
2021/07/03 09:34:44;;;;;;;15.02;11.45;;;;;;;;;;5092135;28;20020;-63
2021/07/03 09:37:12;;;;;;;15.15;11.75;;;;;;;;;;5090851;28;20025;-63
2021/07/03 09:39:38;;;;;;;18.38;12.07;;;;;;;;;;5089476;28;20020;-63
2021/07/03 09:42:13;;;;;;;15.45;11.80;;;;;;;;;;5092371;28;20081;-63
2021/07/03 09:44:39;;;;;;;18.30;13.25;;;;;;;;;;5089080;28;20042;-63
2021/07/03 09:47:05;;;;;;;18.73;13.73;;;;;;;;;;5090603;28;20077;-64
2021/07/03 09:49:31;;;;;;;22.30;13.05;;;;;;;;;;5092350;28;20044;-64
2021/07/03 09:51:58;;;;;;;18.20;12.20;;;;;;;;;;5088332;28;20024;-63
2021/07/03 09:54:25;;;;;;;24.73;14.13;;;;;;;;;;5087557;28;20035;-64
2021/07/03 09:56:59;;;;;;;19.10;12.02;;;;;;;;;;5089963;28;20032;-63
2021/07/03 09:59:31;;;;;;;20.80;12.88;;;;;;;;;;5087810;28;20185;-63
2021/07/03 10:01:57;;;;;;;18.70;13.00;;;;;;;;;;5091232;28;20016;-64
2021/07/03 10:04:23;;;;;;;21.30;12.75;;;;;;;;;;5091150;28;20031;-63
2021/07/03 10:06:51;;;;;;;20.20;12.88;;;;;;;;;;5089865;28;20525;-63
2021/07/03 10:09:22;;;;;;;25.08;13.57;;;;;;;;;;5089680;28;20012;-63
2021/07/03 10:11:48;;;;;;;;;;;;;;;;;;5092334;28;20043;-63
2021/07/03 10:14:15;;;;;;;20.35;13.60;;;;;;;;;;5091393;28;19908;-63
2021/07/03 10:16:41;;;;;;;20.67;13.32;;;;;;;;;;5091033;28;20024;-62
2021/07/03 10:19:09;;;;;;;20.98;13.00;;;;;;;;;;5088419;28;20116;-63
2021/07/03 10:21:35;;;;;;;19.67;12.15;;;;;;;;;;5091171;28;20103;-63
2021/07/03 10:24:02;;;;;;;19.10;13.40;;;;;;;;;;5094283;28;20027;-63
2021/07/03 10:26:37;;;;;;;19.15;13.25;;;;;;;;;;5092113;28;20024;-62
2021/07/03 10:29:14;;;;;;;16.48;11.48;;;;;;;;;;5088478;28;20090;-63
2021/07/03 10:31:40;;;;;;;17.50;13.00;;;;;;;;;;5090892;28;20483;-63
2021/07/03 10:34:06;;;;;;;22.85;13.55;;;;;;;;;;5090691;28;20415;-63
2021/07/03 10:36:32;;;;;;;21.42;13.30;;;;;;;;;;5091405;28;20031;-63
2021/07/03 10:39:00;;;;;;;20.60;12.85;;;;;;;;;;5088732;28;20093;-63
2021/07/03 10:41:28;;;;;;;21.35;14.75;;;;;;;;;;5089146;28;20916;-63
2021/07/03 10:44:15;;;;;;;25.88;16.05;;;;;;;;;;5077931;28;20020;-63
2021/07/03 10:46:44;;;;;;;25.05;17.67;;;;;;;;;;5077478;28;20027;-62
2021/07/03 10:49:11;;;;;;;27.88;18.25;;;;;;;;;;5067925;28;20515;-63
2021/07/03 10:51:37;;;;;;;30.40;17.48;;;;;;;;;;5076541;28;20067;-63
2021/07/03 10:54:09;;;;;;;24.00;16.50;;;;;;;;;;5075017;28;20499;-63
2021/07/03 10:57:03;;;;;;;26.40;17.33;;;;;;;;;;5080568;28;20020;-63
2021/07/03 10:59:30;;;;;;;25.83;17.85;;;;;;;;;;5077576;28;20024;-63
2021/07/03 11:02:26;;;;;;;21.33;17.42;;;;;;;;;;5080632;28;20069;-63
2021/07/03 11:04:53;;;;;;;26.02;19.02;;;;;;;;;;5064130;28;20032;-63
2021/07/03 11:07:20;;;;;;;29.67;20.02;;;;;;;;;;5077425;28;20425;-62
2021/07/03 11:09:47;;;;;;;30.63;19.17;;;;;;;;;;5079829;28;20035;-62
2021/07/03 11:12:15;;;;;;;29.35;18.90;;;;;;;;;;5080004;28;20016;-63
2021/07/03 11:14:48;;;;;;;23.05;17.10;;;;;;;;;;5086630;28;20463;-62
2021/07/03 11:17:15;;;;;;;23.85;18.42;;;;;;;;;;5082981;28;20404;-63
2021/07/03 11:19:43;;;;;;;26.55;17.73;;;;;;;;;;5085560;28;20032;-63
2021/07/03 11:22:10;;;;;;;24.30;16.08;;;;;;;;;;5077177;28;20056;-62
2021/07/03 11:24:40;;;;;;;22.30;14.38;;;;;;;;;;5078455;28;20024;-62
2021/07/03 11:27:06;;;;;;;27.30;14.35;;;;;;;;;;5073318;28;20601;-63
2021/07/03 11:29:32;;;;;;;20.58;14.23;;;;;;;;;;5079726;28;20025;-63
2021/07/03 11:32:08;;;;;;;22.30;13.93;;;;;;;;;;5072990;28;20031;-62
2021/07/03 11:34:35;;;;;;;23.85;15.27;;;;;;;;;;5079871;28;20467;-63
2021/07/03 11:37:02;;;;;;;23.50;13.63;;;;;;;;;;5082151;28;20024;-63
2021/07/03 11:39:29;;;;;;;20.23;13.90;;;;;;;;;;5084428;28;20028;-63
2021/07/03 11:41:59;;;;;;;23.23;13.18;;;;;;;;;;5085791;28;20081;-63
2021/07/03 11:44:26;;;;;;;20.42;14.10;;;;;;;;;;5086189;28;20028;-62
2021/07/03 11:46:52;;;;;;;22.60;14.05;;;;;;;;;;5083770;28;20151;-62
2021/07/03 11:49:18;;;;;;;22.77;15.60;;;;;;;;;;5087049;28;20043;-62
2021/07/03 11:51:44;;;;;;;24.13;15.40;;;;;;;;;;5083594;28;20035;-62
2021/07/03 11:54:10;;;;;;;21.90;14.52;;;;;;;;;;5076256;28;20023;-62
2021/07/03 11:56:36;;;;;;;27.23;15.52;;;;;;;;;;5088084;28;20415;-62
2021/07/03 11:59:03;;;;;;;20.13;15.05;;;;;;;;;;5086658;28;20027;-62
2021/07/03 12:01:29;;;;;;;17.95;13.48;;;;;;;;;;5092965;28;20024;-62
2021/07/03 12:03:57;;;;;;;20.08;13.93;;;;;;;;;;5092156;28;20058;-63
2021/07/03 12:06:23;;;;;;;21.35;13.52;;;;;;;;;;5093537;28;20511;-62
2021/07/03 12:08:51;;;;;;;20.77;14.10;;;;;;;;;;5088224;28;20175;-62
2021/07/03 12:11:19;;;;;;;25.13;14.05;;;;;;;;;;5090951;28;20020;-62
2021/07/03 12:13:47;;;;;;;23.25;14.63;;;;;;;;;;5093987;28;20015;-62
2021/07/03 12:16:14;;;;;;;24.83;14.35;;;;;;;;;;5090984;28;20024;-62
2021/07/03 12:18:50;;;;;;;20.48;14.10;;;;;;;;;;5086840;28;20071;-63
2021/07/03 12:21:21;;;;;;;20.92;14.82;;;;;;;;;;5088363;28;20028;-64
2021/07/03 12:23:47;;;;;;;21.00;14.60;;;;;;;;;;5092696;28;20026;-66
2021/07/03 12:26:43;;;;;;;25.50;16.08;;;;;;;;;;5093447;28;20028;-63
2021/07/03 12:29:10;;;;;;;21.35;15.32;;;;;;;;;;5057419;28;20098;-63
2021/07/03 12:31:37;;;;;;;21.05;13.50;;;;;;;;;;5091062;28;20292;-63
2021/07/03 12:34:11;;;;;;;22.45;14.40;;;;;;;;;;5092256;28;20032;-70
2021/07/03 12:36:38;;;;;;;22.33;15.23;;;;;;;;;;5092766;28;20035;-67
2021/07/03 12:39:06;;;;;;;22.98;15.85;;;;;;;;;;5090995;28;20036;-67
2021/07/03 12:41:32;;;;;;;26.23;18.35;;;;;;;;;;5091146;28;20067;-63
2021/07/03 12:44:00;;;;;;;22.65;15.55;;;;;;;;;;5090634;28;20024;-63
2021/07/03 12:46:30;;;;;;;23.95;15.85;;;;;;;;;;5090907;28;20028;-63
2021/07/03 12:48:56;;;;;;;24.45;17.08;;;;;;;;;;5086083;28;20031;-63
2021/07/03 12:51:27;;;;;;;28.13;18.95;;;;;;;;;;5089776;28;20015;-62
2021/07/03 12:53:57;;;;;;;27.33;18.48;;;;;;;;;;5085917;28;20494;-63
2021/07/03 12:56:23;;;;;;;26.38;18.02;;;;;;;;;;5088646;28;20398;-62
2021/07/03 12:58:56;;;;;;;28.13;17.40;;;;;;;;;;5075948;28;20062;-63
2021/07/03 13:01:28;;;;;;;26.17;16.85;;;;;;;;;;5085851;28;20039;-62
2021/07/03 13:03:54;;;;;;;26.27;16.42;;;;;;;;;;5090555;28;20970;-62
2021/07/03 13:06:24;;;;;;;25.77;16.23;;;;;;;;;;5086277;28;20028;-63
2021/07/03 13:08:50;;;;;;;26.70;16.67;;;;;;;;;;5087641;28;20032;-62
2021/07/03 13:11:16;;;;;;;21.40;15.57;;;;;;;;;;5090757;28;20141;-62
2021/07/03 13:13:42;;;;;;;20.77;13.98;;;;;;;;;;5096211;28;20020;-62
2021/07/03 13:16:08;;;;;;;23.73;15.32;;;;;;;;;;5090245;28;20028;-62
2021/07/03 13:18:34;;;;;;;20.25;14.40;;;;;;;;;;5090294;28;20031;-63
2021/07/03 13:21:01;;;;;;;21.70;14.73;;;;;;;;;;5092188;28;20024;-63
2021/07/03 13:23:31;;;;;;;22.55;15.55;;;;;;;;;;5092602;28;20024;-62
2021/07/03 13:25:57;;;;;;;21.13;13.82;;;;;;;;;;5079681;28;20028;-63
2021/07/03 13:28:23;;;;;;;20.65;14.98;;;;;;;;;;5083590;28;20069;-63
2021/07/03 13:30:50;;;;;;;26.40;15.60;;;;;;;;;;5088460;28;20028;-63
2021/07/03 13:33:16;;;;;;;23.92;16.00;;;;;;;;;;5089342;28;20185;-63
2021/07/03 13:35:42;;;;;;;21.13;15.57;;;;;;;;;;5089772;28;20395;-63
2021/07/03 13:38:08;;;;;;;22.38;14.95;;;;;;;;;;5088249;28;20035;-63
2021/07/03 13:40:34;;;;;;;132.65;47.75;;;;;;;;;;5090408;28;20059;-63
2021/07/03 13:43:00;;;;;;;30.77;17.92;;;;;;;;;;5089218;28;20027;-63
2021/07/03 13:45:26;;;;;;;30.95;18.00;;;;;;;;;;5085511;28;20028;-63
2021/07/03 13:47:52;;;;;;;29.05;20.08;;;;;;;;;;5085286;28;20468;-63
2021/07/03 13:50:19;;;;;;;27.17;19.98;;;;;;;;;;5089456;28;20047;-63
2021/07/03 13:52:45;;;;;;;26.90;18.55;;;;;;;;;;5088870;28;20502;-62
2021/07/03 13:55:11;;;;;;;31.50;21.08;;;;;;;;;;5090894;28;20511;-63
2021/07/03 13:57:37;;;;;;;31.50;22.55;;;;;;;;;;5088173;28;20081;-63
2021/07/03 14:00:08;;;;;;;29.38;20.73;;;;;;;;;;5090512;28;20032;-62
2021/07/03 14:02:34;;;;;;;31.27;21.92;;;;;;;;;;5089290;28;20033;-62
2021/07/03 14:05:00;;;;;;;28.10;18.70;;;;;;;;;;5089128;28;20016;-62
2021/07/03 14:07:26;;;;;;;29.73;20.17;;;;;;;;;;5088068;28;20025;-63
2021/07/03 14:09:52;;;;;;;32.35;20.45;;;;;;;;;;5090187;28;20024;-63
2021/07/03 14:12:18;;;;;;;30.92;19.50;;;;;;;;;;5090508;28;20035;-62
2021/07/03 14:14:45;;;;;;;22.95;17.30;;;;;;;;;;5093652;28;20042;-63
2021/07/03 14:17:11;;;;;;;25.20;18.35;;;;;;;;;;5086345;28;20210;-62